Time;durP1;ratioP1;P1;durP2;ratioP2;P2;SDS_P1;SDS_P2;PMS_P1;PMS_P2;Temp;Humidity;BMP_temperature;BMP_pressure;BME280_temperature;BME280_humidity;BME280_pressure;Samples;Min_cycle;Max_cycle;Signal;HPM_P1;HPM_P2
2023/09/27 00:06:44;;;;;;;12.30;4.03;;;;;;;22.16;100.00;100654.94;20867604;28;20057;-70
2023/09/27 00:17:08;;;;;;;11.05;4.47;;;;;;;22.30;100.00;100642.81;20886996;28;20647;-70
2023/09/27 00:27:31;;;;;;;11.63;3.70;;;;;;;22.13;100.00;100633.50;20934102;28;20063;-71
2023/09/27 00:37:58;;;;;;;11.30;3.80;;;;;;;22.13;100.00;100630.81;20878710;28;20045;-70
2023/09/27 00:48:21;;;;;;;14.48;4.63;;;;;;;22.15;100.00;100615.53;20871400;28;20053;-70
2023/09/27 00:58:45;;;;;;;10.70;4.10;;;;;;;22.13;100.00;100614.69;20868951;28;20489;-71
2023/09/27 01:09:08;;;;;;;7.90;3.97;;;;;;;22.04;100.00;100606.06;20868830;28;20194;-71
2023/09/27 01:19:32;;;;;;;11.30;3.60;;;;;;;21.94;100.00;100605.44;20866081;28;20497;-70
2023/09/27 01:29:56;;;;;;;14.98;4.57;;;;;;;21.91;100.00;100610.06;20880921;28;20052;-71
2023/09/27 01:40:22;;;;;;;9.75;3.83;;;;;;;21.83;100.00;100610.31;20916017;28;20568;-70
2023/09/27 01:50:46;;;;;;;10.70;4.15;;;;;;;21.71;100.00;100599.97;20868780;28;20049;-71
2023/09/27 02:01:09;;;;;;;12.02;4.35;;;;;;;21.61;100.00;100599.38;20899781;28;20435;-70
2023/09/27 02:11:34;;;;;;;9.90;4.50;;;;;;;21.69;100.00;100601.81;20882474;28;20136;-70
2023/09/27 02:21:57;;;;;;;11.43;4.38;;;;;;;21.56;100.00;100609.41;20789981;28;20069;-70
2023/09/27 02:32:21;;;;;;;11.93;4.72;;;;;;;21.54;100.00;100602.31;20789056;28;20046;-70
2023/09/27 02:42:46;;;;;;;10.82;4.18;;;;;;;21.30;100.00;100612.91;20799785;28;20041;-70
2023/09/27 02:53:11;;;;;;;10.68;3.72;;;;;;;21.34;100.00;100609.19;20799219;28;20053;-70
2023/09/27 03:03:34;;;;;;;9.23;3.95;;;;;;;21.13;100.00;100612.53;20799411;28;20045;-70
2023/09/27 03:13:59;;;;;;;11.48;3.78;;;;;;;21.12;100.00;100617.94;20813272;28;20057;-70
2023/09/27 03:24:21;;;;;;;8.55;3.40;;;;;;;21.15;100.00;100628.56;20879898;28;20056;-70
2023/09/27 03:34:47;;;;;;;11.25;3.97;;;;;;;21.30;100.00;100631.72;20880924;28;20095;-70
2023/09/27 03:45:11;;;;;;;8.07;3.80;;;;;;;21.57;100.00;100642.53;20852597;28;20148;-70
2023/09/27 03:55:35;;;;;;;10.82;4.55;;;;;;;21.59;100.00;100636.19;20875989;28;20052;-70
2023/09/27 04:05:59;;;;;;;10.23;3.50;;;;;;;21.55;100.00;100637.19;20876902;28;20489;-69
2023/09/27 04:16:23;;;;;;;11.90;3.42;;;;;;;21.15;100.00;100640.19;20869914;28;20041;-71
2023/09/27 04:26:46;;;;;;;13.38;4.30;;;;;;;21.09;100.00;100635.88;20799916;28;20686;-70
2023/09/27 04:37:10;;;;;;;7.68;3.35;;;;;;;21.02;100.00;100636.97;20804516;28;20066;-70
2023/09/27 04:47:33;;;;;;;10.18;3.20;;;;;;;21.74;100.00;100640.16;20826853;28;20049;-70
2023/09/27 04:57:57;;;;;;;6.18;2.13;;;;;;;22.55;100.00;100657.19;20825326;28;20061;-70
2023/09/27 05:08:20;;;;;;;9.68;2.70;;;;;;;23.26;100.00;100661.75;20827654;28;20054;-70
2023/09/27 05:18:44;;;;;;;8.98;2.40;;;;;;;23.99;100.00;100664.25;20824837;28;20049;-70
2023/09/27 05:29:06;;;;;;;11.63;2.53;;;;;;;24.68;100.00;100664.94;20881237;28;20567;-70
2023/09/27 05:39:31;;;;;;;6.07;2.00;;;;;;;25.37;100.00;100674.38;20908736;28;20048;-70
2023/09/27 05:49:54;;;;;;;10.00;2.20;;;;;;;25.89;100.00;100667.38;20893616;28;20052;-70
2023/09/27 06:00:26;;;;;;;10.05;2.22;;;;;;;26.45;100.00;100677.25;20883507;28;20057;-70
2023/09/27 06:10:48;;;;;;;12.32;2.40;;;;;;;26.38;100.00;100670.38;20896295;28;20429;-69
2023/09/27 06:21:12;;;;;;;11.75;2.05;;;;;;;26.30;100.00;100687.00;20889289;28;20045;-70
2023/09/27 06:31:35;;;;;;;9.73;2.22;;;;;;;27.10;100.00;100679.22;20902198;28;20064;-69
2023/09/27 06:41:59;;;;;;;10.68;2.42;;;;;;;27.89;100.00;100676.63;20908611;28;20036;-69
2023/09/27 06:52:22;;;;;;;6.35;1.67;;;;;;;28.48;100.00;100675.88;20938800;28;20056;-70
2023/09/27 07:02:47;;;;;;;7.47;1.92;;;;;;;29.01;87.15;100674.47;20890755;28;20072;-70
2023/09/27 07:13:10;;;;;;;7.50;1.83;;;;;;;29.35;75.91;100684.09;20875847;28;20076;-70
2023/09/27 07:23:34;;;;;;;8.85;1.95;;;;;;;29.90;72.01;100676.84;20892786;28;20051;-70
2023/09/27 07:33:57;;;;;;;7.13;2.08;;;;;;;30.32;65.41;100689.50;20898584;28;20417;-70
2023/09/27 07:44:21;;;;;;;9.43;2.47;;;;;;;30.82;54.93;100699.66;20832931;28;20102;-71
2023/09/27 07:54:45;;;;;;;7.68;1.83;;;;;;;31.06;50.97;100709.88;20873545;28;20053;-70
2023/09/27 08:05:11;;;;;;;8.35;1.80;;;;;;;31.33;49.42;100713.38;20865984;28;20392;-70
2023/09/27 08:15:33;;;;;;;8.40;1.40;;;;;;;31.80;47.27;100730.94;20914833;28;20075;-69
2023/09/27 08:25:57;;;;;;;5.72;1.55;;;;;;;32.17;41.93;100734.56;20901536;28;20057;-70
2023/09/27 08:36:20;;;;;;;8.52;1.90;;;;;;;32.68;39.45;100725.19;20891877;28;20102;-71
2023/09/27 08:46:45;;;;;;;4.90;1.40;;;;;;;32.21;37.70;100725.16;20891776;28;20420;-70
2023/09/27 08:57:08;;;;;;;;;;;;;;;32.23;38.40;100742.31;20864523;28;20064;-70
2023/09/27 09:07:33;;;;;;;4.50;1.42;;;;;;;32.48;44.77;100744.06;20880166;28;20384;-70
2023/09/27 09:17:57;;;;;;;8.47;2.13;;;;;;;32.93;48.13;100731.47;20867464;28;20049;-70
2023/09/27 09:28:22;;;;;;;7.90;2.00;;;;;;;32.77;53.96;100735.41;20872656;28;20709;-71
2023/09/27 09:38:44;;;;;;;10.45;1.98;;;;;;;32.42;55.10;100729.88;20822829;28;20527;-70
2023/09/27 09:49:10;;;;;;;6.65;1.65;;;;;;;32.67;54.44;100715.22;20810184;28;20136;-70
2023/09/27 09:59:42;;;;;;;15.05;2.05;;;;;;;32.72;53.31;100701.19;20809002;28;20053;-70
2023/09/27 10:10:08;;;;;;;7.45;1.60;;;;;;;33.18;51.41;100690.22;20803100;28;20100;-70
2023/09/27 10:20:31;;;;;;;8.40;1.58;;;;;;;33.46;49.24;100697.13;20817525;28;20049;-71
2023/09/27 10:31:09;;;;;;;8.35;1.90;;;;;;;33.70;38.71;100675.06;20816022;28;20048;-70
2023/09/27 10:41:46;;;;;;;4.80;1.35;;;;;;;33.41;28.07;100674.75;20846095;28;20060;-71
2023/09/27 10:52:18;;;;;;;10.77;2.25;;;;;;;33.10;29.23;100668.06;20823630;28;20092;-70
2023/09/27 11:02:41;;;;;;;9.27;1.88;;;;;;;33.25;28.47;100661.41;20841222;28;20080;-70
2023/09/27 11:13:13;;;;;;;7.43;1.40;;;;;;;33.05;28.12;100648.41;20855212;28;20378;-70
2023/09/27 11:23:54;;;;;;;5.63;1.63;;;;;;;32.97;28.52;100638.09;20864963;28;20102;-70
2023/09/27 11:34:20;;;;;;;5.70;1.30;;;;;;;32.81;27.94;100626.63;20855395;28;20374;-70
2023/09/27 11:44:43;;;;;;;7.93;2.10;;;;;;;32.64;30.60;100629.78;20896101;28;20107;-70
2023/09/27 11:55:09;;;;;;;5.95;1.30;;;;;;;32.35;30.00;100641.13;20880237;28;20045;-70
2023/09/27 12:05:32;;;;;;;8.95;1.75;;;;;;;32.18;30.66;100641.53;20861391;28;20139;-70
2023/09/27 12:15:56;;;;;;;11.98;1.63;;;;;;;31.89;31.53;100645.59;20865925;28;20099;-70
2023/09/27 12:26:18;;;;;;;6.55;1.50;;;;;;;31.91;31.08;100636.28;20867081;28;20275;-70
2023/09/27 12:36:42;;;;;;;8.10;1.85;;;;;;;31.80;31.13;100638.94;20878311;28;20130;-70
2023/09/27 12:47:05;;;;;;;8.85;2.38;;;;;;;31.51;32.56;100632.88;20860937;28;20045;-70
2023/09/27 12:57:29;;;;;;;6.15;1.55;;;;;;;31.58;32.96;100615.06;20888407;28;20053;-71
2023/09/27 13:07:52;;;;;;;7.20;1.67;;;;;;;31.71;32.90;100605.97;20886461;28;20056;-70
2023/09/27 13:18:16;;;;;;;4.30;1.50;;;;;;;31.33;35.48;100606.06;20835354;28;20482;-70
2023/09/27 13:28:39;;;;;;;5.55;1.50;;;;;;;30.75;38.09;100597.47;20863635;28;20584;-70
2023/09/27 13:39:05;;;;;;;7.28;1.73;;;;;;;30.27;41.73;100600.84;20832954;28;20053;-70
2023/09/27 13:49:28;;;;;;;4.43;1.60;;;;;;;29.93;45.02;100603.16;20884428;28;20425;-69
2023/09/27 13:59:53;;;;;;;5.88;1.60;;;;;;;29.76;45.76;100608.81;20864739;28;20057;-70
2023/09/27 14:10:15;;;;;;;5.95;1.90;;;;;;;29.57;49.21;100606.44;20907673;28;20091;-70
2023/09/27 14:20:40;;;;;;;9.25;2.10;;;;;;;29.45;54.60;100628.16;20890450;28;20061;-70
2023/09/27 14:31:03;;;;;;;6.05;2.10;;;;;;;29.29;59.99;100614.63;20887209;28;20159;-70
2023/09/27 14:41:28;;;;;;;9.48;1.75;;;;;;;29.15;65.95;100628.22;20888123;28;20049;-70
2023/09/27 14:51:52;;;;;;;8.90;2.35;;;;;;;29.17;71.00;100665.25;20914454;28;20616;-70
2023/09/27 15:02:16;;;;;;;8.32;2.17;;;;;;;29.03;78.22;100651.63;20949601;28;20485;-71
2023/09/27 15:12:39;;;;;;;8.65;1.95;;;;;;;28.83;80.54;100657.44;20858895;28;20110;-71
2023/09/27 15:23:04;;;;;;;8.45;1.75;;;;;;;28.59;81.85;100662.50;20837457;28;20050;-70
2023/09/27 15:33:26;;;;;;;7.72;2.10;;;;;;;28.43;80.34;100667.97;20801870;28;20053;-70
2023/09/27 15:43:51;;;;;;;11.75;2.40;;;;;;;28.31;81.01;100659.69;20813963;28;20489;-70
2023/09/27 15:54:13;;;;;;;6.95;2.17;;;;;;;28.33;81.29;100665.91;20862286;28;20048;-70
2023/09/27 16:04:38;;;;;;;11.93;2.90;;;;;;;28.07;93.89;100662.00;20855153;28;20475;-69
2023/09/27 16:15:01;;;;;;;19.95;3.65;;;;;;;27.13;100.00;100656.47;20858834;28;20068;-68
2023/09/27 16:25:25;;;;;;;12.10;4.22;;;;;;;26.15;100.00;100633.59;20887294;28;20049;-68
2023/09/27 16:35:49;;;;;;;8.52;3.60;;;;;;;25.53;100.00;100636.69;20928714;28;20095;-69
2023/09/27 16:46:14;;;;;;;10.88;3.10;;;;;;;25.17;100.00;100656.41;20859025;28;20079;-69
2023/09/27 16:56:36;;;;;;;7.70;2.97;;;;;;;24.95;100.00;100679.94;20895247;28;20057;-68
2023/09/27 17:07:02;;;;;;;8.95;2.85;;;;;;;24.67;100.00;100695.59;20897405;28;20087;-69
2023/09/27 17:17:25;;;;;;;5.22;2.38;;;;;;;24.18;100.00;100689.53;20885867;28;20061;-69
2023/09/27 17:27:49;;;;;;;9.30;3.40;;;;;;;23.98;100.00;100702.94;20881310;28;20048;-69
2023/09/27 17:38:12;;;;;;;9.75;3.53;;;;;;;23.77;100.00;100721.75;20894203;28;20099;-69
2023/09/27 17:48:36;;;;;;;6.75;2.83;;;;;;;23.62;100.00;100735.84;20888499;28;20135;-69
2023/09/27 17:59:01;;;;;;;6.20;2.63;;;;;;;23.63;100.00;100740.28;20888592;28;20051;-69
2023/09/27 18:09:25;;;;;;;9.38;2.95;;;;;;;23.48;100.00;100740.88;20891355;28;20045;-69
2023/09/27 18:19:47;;;;;;;9.32;2.70;;;;;;;23.37;100.00;100737.66;20956505;28;20049;-69
2023/09/27 18:30:13;;;;;;;5.72;2.90;;;;;;;23.13;100.00;100761.00;20907098;28;20053;-69
2023/09/27 18:40:37;;;;;;;5.95;2.88;;;;;;;23.15;100.00;100766.34;20878259;28;20099;-69
2023/09/27 18:51:01;;;;;;;7.38;3.65;;;;;;;23.08;100.00;100765.69;20840703;28;20491;-69
2023/09/27 19:01:23;;;;;;;6.15;2.28;;;;;;;23.02;100.00;100764.09;20842781;28;20485;-69
2023/09/27 19:11:47;;;;;;;9.38;2.53;;;;;;;22.89;100.00;100764.56;20871350;28;20037;-69
2023/09/27 19:22:10;;;;;;;7.20;2.90;;;;;;;22.86;100.00;100770.94;20857194;28;20055;-69
2023/09/27 19:32:35;;;;;;;6.25;2.33;;;;;;;22.75;100.00;100786.59;20885404;28;20107;-69
2023/09/27 19:42:57;;;;;;;6.30;2.55;;;;;;;22.72;100.00;100778.56;20871251;28;20056;-69
2023/09/27 19:53:23;;;;;;;7.22;2.30;;;;;;;22.67;100.00;100792.19;20878778;28;20060;-69
2023/09/27 20:03:46;;;;;;;9.45;2.92;;;;;;;22.69;100.00;100792.16;20879252;28;20057;-70
2023/09/27 20:14:10;;;;;;;7.63;2.95;;;;;;;22.64;100.00;100778.81;20869401;28;20061;-70
2023/09/27 20:24:32;;;;;;;8.55;2.72;;;;;;;22.47;100.00;100791.09;20866534;28;20045;-70
2023/09/27 20:34:56;;;;;;;7.20;2.38;;;;;;;22.44;100.00;100785.81;20930566;28;20149;-70
2023/09/27 20:45:20;;;;;;;7.30;2.53;;;;;;;22.43;100.00;100795.72;20915793;28;20072;-69
2023/09/27 20:55:44;;;;;;;7.50;2.53;;;;;;;22.41;100.00;100807.44;20894595;28;20156;-69
2023/09/27 21:06:06;;;;;;;8.85;2.92;;;;;;;22.35;100.00;100804.94;20924932;28;20057;-70
2023/09/27 21:16:33;;;;;;;8.23;2.72;;;;;;;22.38;100.00;100792.28;20848481;28;20077;-70
2023/09/27 21:26:55;;;;;;;8.88;2.38;;;;;;;22.43;100.00;100789.44;20836875;28;20052;-70
2023/09/27 21:37:19;;;;;;;8.75;2.95;;;;;;;22.49;100.00;100781.16;20835694;28;20048;-69
2023/09/27 21:47:41;;;;;;;5.85;2.55;;;;;;;22.48;100.00;100785.66;20851975;28;20107;-70
2023/09/27 21:58:07;;;;;;;7.60;2.22;;;;;;;22.52;100.00;100808.84;20885024;28;20374;-70
2023/09/27 22:08:29;;;;;;;8.07;2.63;;;;;;;22.54;100.00;100798.03;20879586;28;20044;-70
2023/09/27 22:19:00;;;;;;;8.10;1.98;;;;;;;22.59;100.00;100805.00;20871333;28;20072;-70
2023/09/27 22:29:22;;;;;;;7.07;2.13;;;;;;;22.65;100.00;100807.50;20882000;28;20060;-70
2023/09/27 22:39:47;;;;;;;6.38;2.22;;;;;;;22.66;100.00;100803.00;20879936;28;20874;-70
2023/09/27 22:50:10;;;;;;;8.45;2.38;;;;;;;22.52;100.00;100786.44;20858696;28;20081;-70
2023/09/27 23:00:38;;;;;;;9.43;2.78;;;;;;;22.56;100.00;100775.53;20884904;28;20049;-70
2023/09/27 23:11:08;;;;;;;8.80;2.17;;;;;;;22.65;100.00;100793.16;20863328;28;20103;-70
2023/09/27 23:21:33;;;;;;;9.05;2.35;;;;;;;22.63;100.00;100787.84;20869682;28;20147;-70
2023/09/27 23:31:57;;;;;;;7.20;2.08;;;;;;;22.65;100.00;100796.72;20886629;28;20084;-70
2023/09/27 23:42:25;;;;;;;10.38;2.80;;;;;;;22.63;100.00;100790.53;20863165;28;20051;-70
2023/09/27 23:52:48;;;;;;;10.27;2.75;;;;;;;22.47;100.00;100799.16;20891480;28;20075;-70
